• Join FlightAware (Why Join?)
  • Login
  • US Flag 
Rudolph Flight #1: Arrived! 
09:02PM EST


 

Airport Tracker/Info


-or-


 

Live Flight TrackerFlight Track Log ✈ QLK217 ✈ 30-Jun-2013 ✈ YSSY / SYD - YMAY / ABX

Flight Track Log - Related Links

Times and Time Zones

All times are in EDT time to prevent confusion due to time zone crossing. See the QLK217 flight status page for this flight to view local times or setup timezone preferences in your user account.

Time Position Orientation Groundspeed Altitude Reporting Facility
EDT Latitude Longitude Course Direction KTS MPH feet Rate Location/Type
05:45AM -33.9502 151.1773 189° South 122 140 500  Level Aus ATC (RADAR)
05:45AM -33.9740 151.1726 189° South 136 157 1,500 1,620 Climbing Aus ATC (RADAR)
05:46AM -34.0018 151.1369 227° Southwest 142 163 3,200 1,440 Climbing Aus ATC (RADAR)
05:47AM -34.0233 151.1119 224° Southwest 161 185 3,900 1,260 Climbing Aus ATC (RADAR)
05:48AM -34.0451 151.0882 222° Southwest 175 201 4,800 1,620 Climbing Aus ATC (RADAR)
05:48AM -34.0670 151.0649 221° Southwest 176 203 5,800 1,680 Climbing Aus ATC (RADAR)
05:49AM -34.0862 151.0446 221° Southwest 178 205 6,600 1,440 Climbing Aus ATC (RADAR)
05:49AM -34.1085 151.0208 221° Southwest 179 206 7,400 1,320 Climbing Aus ATC (RADAR)
05:50AM -34.1311 150.9970 221° Southwest 181 208 8,200 1,200 Climbing Aus ATC (RADAR)
05:50AM -34.1545 150.9722 221° Southwest 188 216 8,800 1,260 Climbing Aus ATC (RADAR)
05:51AM -34.1946 150.9295 221° Southwest 188 216 10,200 1,380 Climbing Aus ATC (RADAR)
05:52AM -34.2248 150.8978 221° Southwest 187 215 11,300 1,260 Climbing Aus ATC (RADAR)
05:53AM -34.2489 150.8724 221° Southwest 193 222 11,900 1,080 Climbing Aus ATC (RADAR)
05:53AM -34.2722 150.8476 221° Southwest 189 217 12,600 960 Climbing Aus ATC (RADAR)
05:54AM -34.2927 150.8259 221° Southwest 193 222 13,000 840 Climbing Aus ATC (RADAR)
05:54AM -34.3170 150.8000 221° Southwest 196 226 13,500 1,020 Climbing Aus ATC (RADAR)
05:55AM -34.3398 150.7725 225° Southwest 195 224 14,200 960 Climbing Aus ATC (RADAR)
05:56AM -34.3669 150.7259 235° Southwest 199 229 14,900 900 Climbing Aus ATC (RADAR)
05:56AM -34.3863 150.6934 234° Southwest 198 228 15,500 1,020 Climbing Aus ATC (RADAR)
05:57AM -34.4085 150.6573 233° Southwest 196 226 16,200 1,020 Climbing Aus ATC (RADAR)
05:58AM -34.4412 150.6049 233° Southwest 191 220 17,200 1,020 Climbing Aus ATC (RADAR)
05:59AM -34.4626 150.5701 233° Southwest 188 216 17,900 840 Climbing Aus ATC (RADAR)
05:59AM -34.4813 150.5389 234° Southwest 192 221 18,300 720 Climbing Aus ATC (RADAR)
06:00AM -34.5006 150.5069 234° Southwest 195 224 18,800 780 Climbing Aus ATC (RADAR)
06:01AM -34.5224 150.4706 234° Southwest 196 226 19,300 720 Climbing Aus ATC (RADAR)
06:02AM -34.5531 150.4203 233° Southwest 199 229 20,000 660 Climbing Aus ATC (RADAR)
06:02AM -34.5726 150.3882 233° Southwest 199 229 20,400 240 Climbing Aus ATC (RADAR)
06:03AM -34.5937 150.3533 234° Southwest 216 249 20,300 -120 Descending Aus ATC (RADAR)
06:03AM -34.6162 150.3154 234° Southwest 232 267 20,300  Level Aus ATC (RADAR)
06:04AM -34.6430 150.2704 234° Southwest 243 280 20,300  Level Aus ATC (RADAR)
06:05AM -34.6641 150.2361 233° Southwest 249 287 20,300  Level Aus ATC (RADAR)
06:05AM -34.6994 150.1776 234° Southwest 254 292 20,300  Level Aus ATC (RADAR)
06:06AM -34.7423 150.1061 234° Southwest 257 296 20,300  Level Aus ATC (RADAR)
06:07AM -34.7744 150.0533 234° Southwest 255 293 20,300  Level Aus ATC (RADAR)
06:08AM -34.7956 150.0177 234° Southwest 256 295 20,300  Level Aus ATC (RADAR)
06:08AM -34.8202 149.9764 234° Southwest 256 295 20,300  Level Aus ATC (RADAR)
06:09AM -34.8450 149.9354 234° Southwest 255 293 20,300  Level Aus ATC (RADAR)
06:09AM -34.8694 149.8941 234° Southwest 255 293 20,300  Level Aus ATC (RADAR)
06:10AM -34.8936 149.8531 234° Southwest 255 293 20,300  Level Aus ATC (RADAR)
06:10AM -34.9148 149.8176 234° Southwest 256 295 20,300  Level Aus ATC (RADAR)
06:11AM -34.9396 149.7763 234° Southwest 257 296 20,300  Level Aus ATC (RADAR)
06:12AM -34.9638 149.7348 234° Southwest 256 295 20,300  Level Aus ATC (RADAR)
06:12AM -34.9886 149.6938 234° Southwest 254 292 20,300  Level Aus ATC (RADAR)
06:13AM -35.0130 149.6523 234° Southwest 255 293 20,300  Level Aus ATC (RADAR)
06:13AM -35.0378 149.6107 234° Southwest 257 296 20,300  Level Aus ATC (RADAR)
06:14AM -35.0828 149.5339 234° Southwest 253 291 20,300  Level Aus ATC (RADAR)
06:15AM -35.1073 149.4922 234° Southwest 255 293 20,300  Level Aus ATC (RADAR)
06:16AM -35.1321 149.4503 234° Southwest 258 297 20,300  Level Aus ATC (RADAR)
06:16AM -35.1571 149.4093 233° Southwest 255 293 20,300  Level Aus ATC (RADAR)
06:17AM -35.1883 149.3553 235° Southwest 256 295 20,300  Level Aus ATC (RADAR)
06:18AM -35.2296 149.2836 235° Southwest 255 293 20,300  Level Aus ATC (RADAR)
06:19AM -35.2608 149.2310 234° Southwest 251 289 20,300  Level Aus ATC (RADAR)
06:19AM -35.2849 149.1888 235° Southwest 258 297 20,300  Level Aus ATC (RADAR)
06:20AM -35.3027 149.1411 246° West 261 300 20,300  Level Aus ATC (RADAR)
06:20AM -35.3216 149.0854 247° West 263 303 20,300  Level Aus ATC (RADAR)
06:21AM -35.3411 149.0306 246° West 259 298 20,300  Level Aus ATC (RADAR)
06:22AM -35.3614 148.9761 245° Southwest 260 299 20,300  Level Aus ATC (RADAR)
06:22AM -35.3790 148.9284 246° West 260 299 20,300  Level Aus ATC (RADAR)
06:23AM -35.3968 148.8801 246° West 263 303 20,300  Level Aus ATC (RADAR)
06:23AM -35.4115 148.8389 246° West 261 300 20,300  Level Aus ATC (RADAR)
06:24AM -35.4287 148.7906 246° West 262 302 20,300  Level Aus ATC (RADAR)
06:24AM -35.4435 148.7497 246° West 260 299 20,300  Level Aus ATC (RADAR)
06:25AM -35.4608 148.7018 246° West 260 299 20,300  Level Aus ATC (RADAR)
06:26AM -35.4779 148.6539 246° West 260 299 20,300  Level Aus ATC (RADAR)
06:26AM -35.4950 148.6064 246° West 258 297 20,300  Level Aus ATC (RADAR)
06:27AM -35.5121 148.5589 246° West 259 298 20,300  Level Aus ATC (RADAR)
06:27AM -35.5294 148.5116 246° West 259 298 20,300  Level Aus ATC (RADAR)
06:28AM -35.5478 148.4651 244° Southwest 258 297 20,300  Level Aus ATC (RADAR)
06:29AM -35.5691 148.4122 244° Southwest 255 293 20,300 60 Level Aus ATC (RADAR)
06:29AM -35.5877 148.3657 244° Southwest 256 295 20,400 60 Climbing Aus ATC (RADAR)
06:30AM -35.6111 148.3067 244° Southwest 254 292 20,400 -60 Level Aus ATC (RADAR)
06:31AM -35.6428 148.2265 244° Southwest 257 296 20,300 -120 Descending Aus ATC (RADAR)
06:32AM -35.6633 148.1744 244° Southwest 251 289 20,300  Level Aus ATC (RADAR)
06:32AM -35.6815 148.1277 244° Southwest 255 293 20,300 -600 Level Aus ATC (RADAR)
06:33AM -35.6976 148.0871 244° Southwest 262 302 19,700 -1,380 Descending Aus ATC (RADAR)
06:33AM -35.7181 148.0311 246° West 269 310 18,700 -1,440 Descending Aus ATC (RADAR)
06:34AM -35.7369 147.9828 244° Southwest 268 308 17,900 -1,380 Descending Aus ATC (RADAR)
06:35AM -35.7580 147.9278 245° Southwest 266 306 17,000 -1,380 Descending Aus ATC (RADAR)
06:36AM -35.7905 147.8447 244° Southwest 269 310 15,600 -1,440 Descending Aus ATC (RADAR)
06:36AM -35.8153 147.7832 244° Southwest 268 308 14,500 -1,440 Descending Aus ATC (RADAR)
06:37AM -35.8483 147.7006 244° Southwest 266 306 13,100 -1,380 Descending Aus ATC (RADAR)
06:38AM -35.8694 147.6464 244° Southwest 263 303 12,200 -1,560 Descending Aus ATC (RADAR)
06:39AM -35.8878 147.5991 244° Southwest 262 302 11,200 -1,560 Descending Aus ATC (RADAR)
06:39AM -35.9050 147.5523 246° West 258 297 10,400 -1,500 Descending Aus ATC (RADAR)
06:40AM -35.9195 147.5141 245° Southwest 247 284 9,600 -1,320 Descending Aus ATC (RADAR)
06:40AM -35.9332 147.4775 245° Southwest 237 273 9,100 -1,200 Descending Aus ATC (RADAR)
06:41AM -35.9518 147.4319 243° Southwest 226 260 8,200 -1,320 Descending Aus ATC (RADAR)
06:41AM -35.9673 147.3913 245° Southwest 226 260 7,500 -1,320 Descending Aus ATC (RADAR)
06:42AM -35.9965 147.3178 244° Southwest 240 276 6,200 -1,380 Descending Aus ATC (RADAR)
06:43AM -36.0099 147.2668 252° West 228 262 5,300 -1,380 Descending Aus ATC (RADAR)
06:46AM -36.0540 147.0323 257° West 500 -1,500 Descending Aus ATC (Calculated)
06:48AM -36.0678 146.9581 255° West  Level Estimated
06:49AM -36.0678 146.9581 93° East  Level Estimated
06:50AM -36.0678 146.9581 93° East  Level Estimated
06:51AM -36.0676 146.9582 274° West  Level FlightAware Approximate
06:52AM -36.0678 146.9581 274° West  Level Estimated